Time;durP1;ratioP1;P1;durP2;ratioP2;P2;SDS_P1;SDS_P2;PMS_P1;PMS_P2;Temp;Humidity;BMP_temperature;BMP_pressure;BME280_temperature;BME280_humidity;BME280_pressure;Samples;Min_cycle;Max_cycle;Signal;HPM_P1;HPM_P2
2022/04/30 00:01:16;;;;;;;;;;;;;;;5.26;100.00;101833.13;5093319;28;19926;-78
2022/04/30 00:03:43;;;;;;;;;;;;;;;5.19;100.00;101821.34;5093549;28;20414;-77
2022/04/30 00:06:09;;;;;;;;;;;;;;;5.18;100.00;101823.84;5093073;28;19920;-77
2022/04/30 00:08:34;;;;;;;;;;;;;;;5.18;100.00;101810.78;5092806;28;19916;-76
2022/04/30 00:10:59;;;;;;;;;;;;;;;5.14;100.00;101804.44;5093156;28;19942;-77
2022/04/30 00:13:26;;;;;;;;;;;;;;;5.09;100.00;101794.47;5092813;28;19996;-78
2022/04/30 00:15:51;;;;;;;;;;;;;;;5.10;100.00;101791.06;5094052;28;20001;-78
2022/04/30 00:18:16;;;;;;;;;;;;;;;5.15;100.00;101781.84;5092632;28;20610;-76
2022/04/30 00:20:47;;;;;;;;;;;;;;;5.12;100.00;101771.19;5076112;28;19920;-78
2022/04/30 00:23:20;;;;;;;;;;;;;;;5.13;100.00;101754.72;5076971;28;19920;-77
2022/04/30 00:25:50;;;;;;;;;;;;;;;5.15;100.00;101742.69;5092883;28;19920;-79
2022/04/30 00:28:16;;;;;;;;;;;;;;;5.17;100.00;101748.91;5074928;28;20379;-77
2022/04/30 00:30:43;;;;;;;;;;;;;;;5.21;100.00;101738.78;5091520;28;19920;-77
2022/04/30 00:33:09;;;;;;;;;;;;;;;5.19;100.00;101734.28;5091852;28;19960;-76
2022/04/30 00:35:35;;;;;;;;;;;;;;;5.21;100.00;101733.56;5091670;28;19939;-76
2022/04/30 00:38:01;;;;;;;;;;;;;;;5.22;100.00;101724.97;5091781;28;20372;-76
2022/04/30 00:40:26;;;;;;;;;;;;;;;5.21;100.00;101728.34;5091852;28;20253;-76
2022/04/30 00:42:51;;;;;;;;;;;;;;;5.16;100.00;101726.22;5091390;28;19937;-76
2022/04/30 00:45:16;;;;;;;;;;;;;;;5.12;100.00;101722.47;5091058;28;19920;-77
2022/04/30 00:47:42;;;;;;;;;;;;;;;5.15;100.00;101709.63;5074307;28;19920;-76
2022/04/30 00:50:10;;;;;;;;;;;;;;;5.18;100.00;101698.50;5091453;28;19920;-76
2022/04/30 00:52:37;;;;;;;;;;;;;;;5.16;100.00;101697.50;5090155;28;19955;-76
2022/04/30 00:55:02;;;;;;;;;;;;;;;5.14;100.00;101691.25;5090456;28;19970;-76
2022/04/30 00:57:29;;;;;;;;;;;;;;;5.08;100.00;101688.19;5089798;28;19981;-76
2022/04/30 01:00:01;;;;;;;;;;;;;;;5.00;100.00;101692.88;5090811;28;19916;-77
2022/04/30 01:02:28;;;;;;;;;;;;;;;4.93;100.00;101688.91;5091600;28;19916;-76
2022/04/30 01:04:56;;;;;;;;;;;;;;;4.88;100.00;101679.88;5092771;28;20349;-76
2022/04/30 01:07:22;;;;;;;;;;;;;;;4.86;100.00;101660.56;5094315;28;19919;-76
2022/04/30 01:09:48;;;;;;;;;;;;;;;4.82;100.00;101651.59;5093672;28;19919;-75
2022/04/30 01:12:14;;;;;;;;;;;;;;;4.79;100.00;101638.34;5095653;28;20380;-76
2022/04/30 01:14:40;;;;;;;;;;;;;;;4.77;100.00;101623.34;5074976;28;20367;-76
2022/04/30 01:17:08;;;;;;;;;;;;;;;4.76;100.00;101603.31;5092762;28;19926;-76
2022/04/30 01:19:36;;;;;;;;;;;;;;;4.75;100.00;101586.72;5076492;28;19927;-78
2022/04/30 01:22:03;;;;;;;;;;;;;;;4.72;100.00;101569.94;5091911;28;19994;-77
2022/04/30 01:24:30;;;;;;;;;;;;;;;4.67;100.00;101560.09;5091657;28;19977;-77
2022/04/30 01:26:57;;;;;;;;;;;;;;;4.65;100.00;101550.34;5091698;28;19916;-77
2022/04/30 01:29:24;;;;;;;;;;;;;;;4.65;100.00;101542.53;5091576;28;19920;-77
2022/04/30 01:37:25;;;;;;;;;;;;;;;4.58;100.00;101517.69;5093218;28;19938;-76
2022/04/30 01:39:57;;;;;;;;;;;;;;;4.54;100.00;101533.00;5074564;28;20011;-77
2022/04/30 01:42:23;;;;;;;;;;;;;;;4.49;100.00;101527.50;5093623;28;19912;-75
2022/04/30 01:44:53;;;;;;;;;;;;;;;4.49;100.00;101517.06;5095166;28;20275;-76
2022/04/30 01:47:19;;;;;;;;;;;;;;;4.50;100.00;101508.44;5078658;28;19964;-76
2022/04/30 01:49:44;;;;;;;;;;;;;;;4.50;100.00;101495.38;5095390;28;19917;-78
2022/04/30 01:52:10;;;;;;;;;;;;;;;4.49;100.00;101483.16;5095761;28;19916;-78
2022/04/30 01:54:36;;;;;;;;;;;;;;;4.53;100.00;101477.34;5095899;28;20279;-78
2022/04/30 01:57:02;;;;;;;;;;;;;;;4.57;100.00;101479.38;5095948;28;20361;-78
2022/04/30 01:59:28;;;;;;;;;;;;;;;4.63;100.00;101453.72;5095948;28;19920;-77
2022/04/30 02:01:54;;;;;;;;;;;;;;;4.66;100.00;101455.63;5095364;28;20368;-78
2022/04/30 02:04:22;;;;;;;;;;;;;;;4.65;100.00;101454.72;5095880;28;19916;-79
2022/04/30 02:06:47;;;;;;;;;;;;;;;4.64;100.00;101444.19;5096146;28;20372;-77
2022/04/30 02:09:14;;;;;;;;;;;;;;;4.68;100.00;101448.81;5095489;28;20006;-77
2022/04/30 02:11:40;;;;;;;;;;;;;;;4.63;100.00;101447.59;5079050;28;20009;-78
2022/04/30 02:14:07;;;;;;;;;;;;;;;4.56;100.00;101438.44;5094160;28;19920;-77
2022/04/30 02:16:34;;;;;;;;;;;;;;;4.55;100.00;101436.59;5094411;28;19916;-78
2022/04/30 02:18:59;;;;;;;;;;;;;;;4.51;100.00;101437.22;5095244;28;19916;-78
2022/04/30 02:21:25;;;;;;;;;;;;;;;4.52;100.00;101420.75;5095204;28;19969;-77
2022/04/30 02:23:57;;;;;;;;;;;;;;;4.49;100.00;101416.25;5096368;28;19916;-78
2022/04/30 02:26:25;;;;;;;;;;;;;;;4.54;100.00;101406.13;5095373;28;19923;-79
2022/04/30 02:28:51;;;;;;;;;;;;;;;4.53;100.00;101395.59;5078241;28;20330;-78
2022/04/30 02:31:23;;;;;;;;;;;;;;;4.47;100.00;101390.84;5095322;28;19916;-78
2022/04/30 02:33:49;;;;;;;;;;;;;;;4.46;100.00;101379.53;5095059;28;19920;-78
2022/04/30 02:36:15;;;;;;;;;;;;;;;4.51;100.00;101372.00;5095139;28;19923;-78
2022/04/30 02:38:41;;;;;;;;;;;;;;;4.45;100.00;101359.44;5094797;28;19916;-77
2022/04/30 02:41:06;;;;;;;;;;;;;;;4.49;100.00;101339.72;5076587;28;20065;-76
2022/04/30 02:43:32;;;;;;;;;;;;;;;4.57;100.00;101333.31;5092628;28;20003;-77
2022/04/30 02:45:57;;;;;;;;;;;;;;;4.51;100.00;101322.47;5095271;28;19920;-76
2022/04/30 02:48:22;;;;;;;;;;;;;;;4.53;100.00;101310.41;5094145;28;19912;-75
2022/04/30 02:50:48;;;;;;;;;;;;;;;4.54;100.00;101280.94;5093237;28;19917;-76
2022/04/30 02:53:14;;;;;;;;;;;;;;;4.58;100.00;101277.72;5093386;28;20384;-76
2022/04/30 02:55:39;;;;;;;;;;;;;;;4.60;100.00;101283.03;5093596;28;19981;-76
2022/04/30 03:00:51;;;;;;;;;;;;;;;4.71;100.00;101276.84;5095202;28;19918;-76
2022/04/30 03:03:18;;;;;;;;;;;;;;;4.79;100.00;101272.13;5093521;28;19916;-75
2022/04/30 03:05:44;;;;;;;;;;;;;;;4.82;100.00;101261.91;5093163;28;19923;-78
2022/04/30 03:08:13;;;;;;;;;;;;;;;4.83;100.00;101264.63;5093475;28;20015;-76
2022/04/30 03:10:43;;;;;;;;;;;;;;;4.89;100.00;101265.81;5095455;28;19916;-78
2022/04/30 03:13:08;;;;;;;;;;;;;;;4.98;100.00;101259.47;5077421;28;19922;-78
2022/04/30 03:15:39;;;;;;;;;;;;;;;5.03;100.00;101262.38;5093524;28;19952;-77
2022/04/30 03:23:32;;;;;;;;;;;;;;;5.14;100.00;101294.41;5095355;28;20420;-76
2022/04/30 03:25:57;;;;;;;;;;;;;;;5.19;100.00;101311.28;5094229;28;19967;-78
2022/04/30 03:28:23;;;;;;;;;;;;;;;5.26;100.00;101308.25;5094006;28;19920;-77
2022/04/30 03:30:48;;;;;;;;;;;;;;;5.36;100.00;101323.72;5094014;28;19917;-79
2022/04/30 03:33:15;;;;;;;;;;;;;;;5.44;100.00;101332.06;5094508;28;20269;-78
2022/04/30 03:35:40;;;;;;;;;;;;;;;5.50;100.00;101341.97;5094837;28;19935;-76
2022/04/30 03:38:09;;;;;;;;;;;;;;;5.56;100.00;101344.97;5076729;28;19924;-79
2022/04/30 03:40:35;;;;;;;;;;;;;;;5.66;100.00;101356.94;5093658;28;19916;-77
2022/04/30 03:43:06;;;;;;;;;;;;;;;5.66;100.00;101376.13;5093817;28;19924;-77
2022/04/30 03:45:31;;;;;;;;;;;;;;;5.74;100.00;101398.41;5094321;28;20012;-78
2022/04/30 03:47:57;;;;;;;;;;;;;;;5.84;100.00;101413.00;5094276;28;19919;-78
2022/04/30 03:50:22;;;;;;;;;;;;;;;6.03;100.00;101428.19;5076980;28;20398;-78
2022/04/30 03:52:47;;;;;;;;;;;;;;;5.96;100.00;101432.88;5093255;28;20662;-78
2022/04/30 03:55:14;;;;;;;;;;;;;;;5.98;100.00;101454.81;5094313;28;19916;-77
2022/04/30 03:57:39;;;;;;;;;;;;;;;5.97;100.00;101463.50;5093029;28;19963;-77
2022/04/30 04:00:05;;;;;;;;;;;;;;;5.94;100.00;101482.44;5092060;28;19924;-77
2022/04/30 04:02:31;;;;;;;;;;;;;;;5.88;100.00;101493.41;5093324;28;20239;-77
2022/04/30 04:04:56;;;;;;;;;;;;;;;5.92;100.00;101515.44;5090997;28;19916;-77
2022/04/30 04:07:22;;;;;;;;;;;;;;;5.93;100.00;101525.06;5093639;28;19916;-78
2022/04/30 04:09:47;;;;;;;;;;;;;;;5.98;100.00;101528.94;5093514;28;19920;-79
2022/04/30 04:12:14;;;;;;;;;;;;;;;6.09;100.00;101554.06;5093176;28;20317;-78
2022/04/30 04:17:39;;;;;;;;;;;;;;;6.25;100.00;101607.38;5094939;28;19922;-78
2022/04/30 04:20:06;;;;;;;;;;;;;;;6.34;100.00;101625.38;5092839;28;20017;-77
2022/04/30 04:22:31;;;;;;;;;;;;;;;6.40;100.00;101655.47;5093610;28;20275;-78
2022/04/30 04:27:46;;;;;;;;;;;;;;;6.49;100.00;101677.81;5094227;28;19927;-77
2022/04/30 04:30:11;;;;;;;;;;;;;;;6.53;100.00;101698.16;5093230;28;19916;-78
2022/04/30 04:32:37;;;;;;;;;;;;;;;6.54;100.00;101711.34;5093252;28;19920;-79
2022/04/30 04:35:02;;;;;;;;;;;;;;;6.58;100.00;101734.25;5093095;28;20389;-78
2022/04/30 04:37:27;;;;;;;;;;;;;;;6.60;100.00;101742.22;5093180;28;19973;-78
2022/04/30 04:39:54;;;;;;;;;;;;;;;6.61;100.00;101758.03;5092973;28;19923;-79
2022/04/30 04:42:20;;;;;;;;;;;;;;;6.63;100.00;101784.28;5093127;28;19916;-78
2022/04/30 04:44:45;;;;;;;;;;;;;;;6.66;100.00;101810.69;5092910;28;20052;-79
2022/04/30 04:47:11;;;;;;;;;;;;;;;6.73;100.00;101833.84;5092954;28;19916;-79
2022/04/30 04:49:36;;;;;;;;;;;;;;;6.74;100.00;101847.84;5093201;28;19915;-79
2022/04/30 04:52:02;;;;;;;;;;;;;;;6.76;100.00;101861.97;5092878;28;19916;-78
2022/04/30 04:54:28;;;;;;;;;;;;;;;6.76;100.00;101890.75;5092466;28;19916;-79
2022/04/30 04:56:53;;;;;;;;;;;;;;;6.75;100.00;101900.28;5091128;28;19916;-77
2022/04/30 04:59:18;;;;;;;;;;;;;;;6.80;100.00;101913.69;5090615;28;20299;-77
2022/04/30 05:01:44;;;;;;;;;;;;;;;6.81;100.00;101929.50;5091383;28;19943;-78
2022/04/30 05:04:11;;;;;;;;;;;;;;;6.90;100.00;101944.97;5091498;28;20426;-76
2022/04/30 05:06:36;;;;;;;;;;;;;;;6.92;100.00;101956.44;5075261;28;20034;-76
2022/04/30 05:09:01;;;;;;;;;;;;;;;6.92;100.00;101981.72;5090700;28;19916;-78
2022/04/30 05:11:27;;;;;;;;;;;;;;;6.93;100.00;102015.88;5091394;28;20072;-78
2022/04/30 05:13:56;;;;;;;;;;;;;;;6.94;100.00;102016.75;5091732;28;19923;-76
2022/04/30 05:16:22;;;;;;;;;;;;;;;6.97;100.00;102032.69;5074186;28;19921;-78
2022/04/30 05:18:47;;;;;;;;;;;;;;;7.00;100.00;102033.81;5092654;28;19920;-78
2022/04/30 05:21:12;;;;;;;;;;;;;;;7.01;100.00;102040.88;5091724;28;19923;-78
2022/04/30 05:23:38;;;;;;;;;;;;;;;7.05;100.00;102047.22;5075308;28;19920;-77
2022/04/30 05:26:04;;;;;;;;;;;;;;;7.05;100.00;102062.94;5075185;28;20336;-77
2022/04/30 05:28:29;;;;;;;;;;;;;;;7.09;100.00;102069.31;5071230;28;19920;-78
2022/04/30 05:30:54;;;;;;;;;;;;;;;7.10;100.00;102063.25;5071234;28;20193;-77
2022/04/30 05:33:22;;;;;;;;;;;;;;;7.13;100.00;102066.09;5071539;28;19932;-77
2022/04/30 05:35:47;;;;;;;;;;;;;;;7.14;100.00;102057.44;5071678;28;19960;-77
2022/04/30 05:38:12;;;;;;;;;;;;;;;7.12;100.00;102073.03;5072898;28;19923;-77
2022/04/30 05:40:38;;;;;;;;;;;;;;;7.17;100.00;102089.97;5055144;28;20427;-77
2022/04/30 05:43:04;;;;;;;;;;;;;;;7.15;100.00;102085.47;5053610;28;19920;-77
2022/04/30 05:45:29;;;;;;;;;;;;;;;7.17;100.00;102076.88;5070257;28;19973;-76
2022/04/30 05:47:55;;;;;;;;;;;;;;;7.22;100.00;102078.94;5052955;28;19999;-77
2022/04/30 05:50:22;;;;;;;;;;;;;;;7.25;100.00;102077.41;5072346;28;20393;-75
2022/04/30 05:52:48;;;;;;;;;;;;;;;7.29;100.00;102070.69;5071108;28;19920;-77
2022/04/30 05:55:13;;;;;;;;;;;;;;;7.32;100.00;102081.38;5070917;28;20383;-77
2022/04/30 05:57:39;;;;;;;;;;;;;;;7.39;100.00;102080.97;5071224;28;19966;-77
2022/04/30 06:00:05;;;;;;;;;;;;;;;7.34;100.00;102090.25;5072173;28;19923;-77
2022/04/30 06:02:31;;;;;;;;;;;;;;;7.43;100.00;102090.88;5070916;28;19920;-76
2022/04/30 06:04:59;;;;;;;;;;;;;;;7.44;100.00;102090.09;5071314;28;20389;-76
2022/04/30 06:07:24;;;;;;;;;;;;;;;7.52;100.00;102096.75;5071416;28;19916;-77
2022/04/30 06:09:49;;;;;;;;;;;;;;;7.41;100.00;102089.88;5053937;28;20011;-79
2022/04/30 06:12:15;;;;;;;;;;;;;;;7.44;100.00;102100.56;5070310;28;19916;-75
2022/04/30 06:14:41;;;;;;;;;;;;;;;7.45;100.00;102098.84;5070563;28;19920;-77
2022/04/30 06:17:06;;;;;;;;;;;;;;;7.49;100.00;102109.66;5070757;28;20141;-77
2022/04/30 06:19:32;;;;;;;;;;;;;;;7.53;100.00;102109.03;5054108;28;19963;-77
2022/04/30 06:21:57;;;;;;;;;;;;;;;7.59;100.00;102094.56;5053931;28;19920;-76
2022/04/30 06:24:28;;;;;;;;;;;;;;;7.68;100.00;102105.66;5071404;28;19922;-76
2022/04/30 06:26:55;;;;;;;;;;;;;;;7.72;100.00;102115.53;5070415;28;19916;-76
2022/04/30 06:29:22;;;;;;;;;;;;;;;7.77;100.00;102122.03;5072261;28;19925;-77
2022/04/30 06:31:47;;;;;;;;;;;;;;;7.81;100.00;102118.78;5074109;28;19928;-77
2022/04/30 06:34:17;;;;;;;;;;;;;;;7.80;100.00;102126.53;5074020;28;19913;-76
2022/04/30 06:36:42;;;;;;;;;;;;;;;7.92;100.00;102137.88;5074515;28;20015;-76
2022/04/30 06:39:08;;;;;;;;;;;;;;;8.16;100.00;102154.34;5073889;28;19920;-77
2022/04/30 06:41:33;;;;;;;;;;;;;;;8.18;100.00;102168.47;5073991;28;19956;-78
2022/04/30 06:43:58;;;;;;;;;;;;;;;8.18;100.00;102183.31;5073750;28;19916;-76
2022/04/30 06:46:24;;;;;;;;;;;;;;;8.23;100.00;102193.31;5073935;28;20003;-76
2022/04/30 06:48:49;;;;;;;;;;;;;;;8.27;100.00;102208.44;5074535;28;19917;-75
2022/04/30 06:51:15;;;;;;;;;;;;;;;8.36;100.00;102225.59;5073394;28;19917;-77
2022/04/30 06:59:11;;;;;;;;;;;;;;;8.30;100.00;102256.69;5075355;28;20308;-76
2022/04/30 07:01:44;;;;;;;;;;;;;;;8.25;100.00;102265.19;5073915;28;19989;-78
2022/04/30 07:04:10;;;;;;;;;;;;;;;8.35;100.00;102261.47;5074417;28;19916;-77
2022/04/30 07:06:38;;;;;;;;;;;;;;;8.34;100.00;102271.84;5057670;28;19920;-78
2022/04/30 07:09:04;;;;;;;;;;;;;;;8.31;100.00;102269.03;5073638;28;19924;-77
2022/04/30 07:11:29;;;;;;;;;;;;;;;8.32;100.00;102271.75;5073390;28;19924;-77
2022/04/30 07:13:56;;;;;;;;;;;;;;;8.36;100.00;102279.03;5073260;28;19917;-76
2022/04/30 07:16:21;;;;;;;;;;;;;;;8.39;100.00;102283.56;5074088;28;19916;-77
2022/04/30 07:18:46;;;;;;;;;;;;;;;8.53;100.00;102288.09;5073878;28;19920;-76
2022/04/30 07:21:12;;;;;;;;;;;;;;;8.67;100.00;102294.25;5056773;28;20365;-78
2022/04/30 07:23:38;;;;;;;;;;;;;;;8.93;100.00;102301.25;5074391;28;19920;-77
2022/04/30 07:26:03;;;;;;;;;;;;;;;9.12;100.00;102328.69;5069961;28;19917;-78
2022/04/30 07:28:33;;;;;;;;;;;;;;;9.32;100.00;102335.25;5082117;28;19927;-79
2022/04/30 07:30:58;;;;;;;;;;;;;;;9.45;100.00;102350.13;5093552;28;19923;-78
2022/04/30 07:33:25;;;;;;;;;;;;;;;9.58;100.00;102367.59;5093922;28;19916;-77
2022/04/30 07:35:51;;;;;;;;;;;;;;;9.79;100.00;102395.28;5092907;28;19923;-77
2022/04/30 07:38:17;;;;;;;;;;;;;;;10.06;100.00;102406.63;5093325;28;19916;-77
2022/04/30 07:40:43;;;;;;;;;;;;;;;10.12;100.00;102423.63;5094192;28;19916;-76
2022/04/30 07:43:09;;;;;;;;;;;;;;;10.41;100.00;102436.03;5092761;28;20007;-76
2022/04/30 07:45:36;;;;;;;;;;;;;;;10.59;100.00;102460.84;5076688;28;19927;-78
2022/04/30 07:48:01;;;;;;;;;;;;;;;10.57;100.00;102480.03;5093027;28;19916;-78
2022/04/30 07:50:30;;;;;;;;;;;;;;;10.66;100.00;102488.50;5076019;28;20342;-78
2022/04/30 07:52:57;;;;;;;;;;;;;;;10.34;100.00;102497.91;5092911;28;19916;-75
2022/04/30 07:55:28;;;;;;;;;;;;;;;10.85;100.00;102482.63;5092693;28;19958;-77
2022/04/30 07:57:53;;;;;;;;;;;;;;;12.01;100.00;102497.31;5075820;28;19952;-75
2022/04/30 08:00:18;;;;;;;;;;;;;;;12.90;100.00;102578.84;5092247;28;19948;-75
2022/04/30 08:02:44;;;;;;;;;;;;;;;13.86;100.00;102615.59;5092538;28;19995;-76
2022/04/30 08:05:09;;;;;;;;;;;;;;;14.10;100.00;102668.00;5074613;28;19924;-76
2022/04/30 08:07:34;;;;;;;;;;;;;;;14.40;100.00;102695.09;5075078;28;19921;-76
2022/04/30 08:09:59;;;;;;;;;;;;;;;14.55;100.00;102724.13;5092079;28;19916;-77
2022/04/30 08:12:25;;;;;;;;;;;;;;;14.00;100.00;102744.34;5075709;28;20073;-76
2022/04/30 08:14:51;;;;;;;;;;;;;;;14.05;100.00;102714.53;5075049;28;19921;-78
2022/04/30 08:17:16;;;;;;;;;;;;;;;14.85;100.00;102785.75;5088858;28;20085;-77
2022/04/30 08:19:43;;;;;;;;;;;;;;;14.39;100.00;102793.09;5092278;28;20433;-78
2022/04/30 08:22:08;;;;;;;;;;;;;;;13.44;100.00;102795.16;5093056;28;19926;-77
2022/04/30 08:24:35;;;;;;;;;;;;;;;12.23;100.00;102774.13;5092715;28;19916;-77
2022/04/30 08:27:00;;;;;;;;;;;;;;;12.01;100.00;102759.63;5090125;28;19963;-77
2022/04/30 08:29:28;;;;;;;;;;;;;;;11.75;100.00;102751.81;5088886;28;19942;-77
2022/04/30 08:31:54;;;;;;;;;;;;;;;12.39;100.00;102762.72;5072964;28;19938;-77
2022/04/30 08:34:24;;;;;;;;;;;;;;;13.35;100.00;102762.91;5072382;28;20022;-78
2022/04/30 08:36:49;;;;;;;;;;;;;;;14.48;100.00;102785.59;5071821;28;19917;-77
2022/04/30 08:39:15;;;;;;;;;;;;;;;15.25;100.00;102797.38;5071986;28;20319;-78
2022/04/30 08:41:41;;;;;;;;;;;;;;;14.85;100.00;102811.34;5071237;28;19939;-78
2022/04/30 08:44:08;;;;;;;;;;;;;;;13.68;100.00;102810.56;5071541;28;19927;-78
2022/04/30 08:46:33;;;;;;;;;;;;;;;12.77;100.00;102790.50;5072171;28;19916;-77
2022/04/30 08:48:59;;;;;;;;;;;;;;;12.15;100.00;102776.28;5072126;28;20368;-76
2022/04/30 08:51:24;;;;;;;;;;;;;;;11.56;100.00;102755.94;5071235;28;19916;-78
2022/04/30 08:53:53;;;;;;;;;;;;;;;10.99;100.00;102739.16;5071685;28;20250;-77
2022/04/30 08:56:18;;;;;;;;;;;;;;;10.58;100.00;102729.44;5071978;28;20407;-78
2022/04/30 08:58:43;;;;;;;;;;;;;;;10.37;100.00;102706.16;5071907;28;19916;-78
2022/04/30 09:01:10;;;;;;;;;;;;;;;10.40;100.00;102693.19;5055190;28;19948;-77
2022/04/30 09:03:36;;;;;;;;;;;;;;;10.65;100.00;102686.00;5055511;28;20319;-77
2022/04/30 09:06:02;;;;;;;;;;;;;;;11.82;100.00;102710.03;5072076;28;19955;-78
2022/04/30 09:08:28;;;;;;;;;;;;;;;12.85;100.00;102724.81;5071850;28;20408;-78
2022/04/30 09:11:03;;;;;;;;;;;;;;;13.54;100.00;102754.22;5070916;28;19920;-78
2022/04/30 09:13:29;;;;;;;;;;;;;;;14.38;100.00;102760.38;5052935;28;19925;-78
2022/04/30 09:15:55;;;;;;;;;;;;;;;14.35;100.00;102769.06;5071334;28;19939;-78
2022/04/30 09:18:21;;;;;;;;;;;;;;;12.97;100.00;102767.81;5071278;28;20383;-77
2022/04/30 09:20:48;;;;;;;;;;;;;;;12.65;100.00;102752.78;5070888;28;19960;-77
2022/04/30 09:23:27;;;;;;;;;;;;;;;12.06;100.00;102748.41;5071481;28;19916;-76
2022/04/30 09:25:53;;;;;;;;;;;;;;;11.45;100.00;102722.69;5054370;28;20007;-76
2022/04/30 09:28:30;;;;;;;;;;;;;;;11.09;100.00;102709.00;5053082;28;20273;-77
2022/04/30 09:31:14;;;;;;;;;;;;;;;10.98;100.00;102689.88;5070622;28;19916;-77
2022/04/30 09:33:49;;;;;;;;;;;;;;;10.93;100.00;102672.84;5071592;28;20022;-77
2022/04/30 09:39:09;;;;;;;;;;;;;;;10.39;100.00;102611.44;5072724;28;19927;-78
2022/04/30 09:41:35;;;;;;;;;;;;;;;10.68;100.00;102573.78;5071610;28;20021;-77
2022/04/30 09:44:05;;;;;;;;;;;;;;;11.02;100.00;102562.72;5071538;28;19932;-79
2022/04/30 09:46:37;;;;;;;;;;;;;;;10.94;100.00;102592.97;5072603;28;19916;-78
2022/04/30 09:54:36;;;;;;;;;;;;;;;12.09;100.00;102656.16;5072689;28;19970;-78
2022/04/30 09:57:04;;;;;;;;;;;;;;;11.97;100.00;102690.69;5072332;28;19924;-77
2022/04/30 09:59:30;;;;;;;;;;;;;;;12.09;100.00;102699.34;5071522;28;19921;-77
2022/04/30 10:01:55;;;;;;;;;;;;;;;11.78;100.00;102700.09;5070941;28;20003;-78
2022/04/30 10:04:23;;;;;;;;;;;;;;;11.63;100.00;102699.16;5074782;28;20360;-77
2022/04/30 10:06:49;;;;;;;;;;;;;;;11.49;100.00;102683.38;5074656;28;19920;-77
2022/04/30 10:09:21;;;;;;;;;;;;;;;11.54;100.00;102667.84;5075239;28;20361;-77
2022/04/30 10:11:55;;;;;;;;;;;;;;;11.78;100.00;102649.97;5074973;28;19916;-77
2022/04/30 10:17:16;;;;;;;;;;;;;;;12.73;100.00;102661.59;5075870;28;19986;-78
2022/04/30 10:19:42;;;;;;;;;;;;;;;13.05;100.00;102665.09;5074752;28;20003;-77
2022/04/30 10:22:08;;;;;;;;;;;;;;;13.31;100.00;102673.56;5073436;28;20004;-77
2022/04/30 10:24:33;;;;;;;;;;;;;;;13.24;100.00;102674.97;5073372;28;19969;-78
2022/04/30 10:26:59;;;;;;;;;;;;;;;12.72;100.00;102673.00;5073703;28;20010;-77
2022/04/30 10:29:24;;;;;;;;;;;;;;;12.78;100.00;102643.34;5074137;28;20424;-77
2022/04/30 10:31:49;;;;;;;;;;;;;;;12.36;100.00;102611.97;5056873;28;19931;-78
2022/04/30 10:34:15;;;;;;;;;;;;;;;12.12;100.00;102593.91;5075471;28;19916;-77
2022/04/30 10:36:40;;;;;;;;;;;;;;;12.27;100.00;102595.59;5074372;28;19921;-77
2022/04/30 10:39:09;;;;;;;;;;;;;;;12.21;100.00;102604.97;5075935;28;20391;-78
2022/04/30 10:41:45;;;;;;;;;;;;;;;11.85;100.00;102612.56;5076385;28;19916;-76
2022/04/30 10:44:12;;;;;;;;;;;;;;;12.17;100.00;102610.00;5074377;28;19983;-77
2022/04/30 10:46:39;;;;;;;;;;;;;;;12.48;100.00;102609.09;5075954;28;19920;-78
2022/04/30 10:49:05;;;;;;;;;;;;;;;12.06;100.00;102613.72;5074550;28;19917;-77
2022/04/30 10:51:37;;;;;;;;;;;;;;;12.18;100.00;102590.66;5075536;28;20382;-77
2022/04/30 10:54:07;;;;;;;;;;;;;;;12.36;100.00;102593.47;5074512;28;19921;-78
2022/04/30 10:56:32;;;;;;;;;;;;;;;12.20;100.00;102599.63;5075351;28;19916;-77
2022/04/30 10:58:58;;;;;;;;;;;;;;;12.34;100.00;102597.75;5072148;28;19920;-77
2022/04/30 11:01:23;;;;;;;;;;;;;;;12.36;100.00;102615.50;5073737;28;20430;-76
2022/04/30 11:03:49;;;;;;;;;;;;;;;12.34;100.00;102600.41;5057166;28;19924;-77
2022/04/30 11:06:19;;;;;;;;;;;;;;;12.09;100.00;102600.72;5073968;28;20003;-76
2022/04/30 11:08:44;;;;;;;;;;;;;;;11.60;100.00;102598.72;5075226;28;20041;-76
2022/04/30 11:11:09;;;;;;;;;;;;;;;11.42;100.00;102601.16;5073317;28;20403;-77
2022/04/30 11:13:36;;;;;;;;;;;;;;;11.01;100.00;102604.81;5074658;28;19965;-75
2022/04/30 11:16:01;;;;;;;;;;;;;;;10.77;100.00;102605.09;5072681;28;19920;-76
2022/04/30 11:18:28;;;;;;;;;;;;;;;10.48;100.00;102583.06;5073893;28;19923;-76
2022/04/30 11:20:59;;;;;;;;;;;;;;;10.44;100.00;102573.16;5073146;28;19913;-77
2022/04/30 11:23:28;;;;;;;;;;;;;;;10.34;100.00;102534.78;5056862;28;20376;-77
2022/04/30 11:25:54;;;;;;;;;;;;;;;10.35;100.00;102530.44;5074180;28;19916;-75
2022/04/30 11:28:27;;;;;;;;;;;;;;;10.37;100.00;102539.34;5073304;28;20399;-77
2022/04/30 11:30:57;;;;;;;;;;;;;;;10.47;100.00;102559.25;5073196;28;19966;-77
2022/04/30 11:33:31;;;;;;;;;;;;;;;10.75;100.00;102543.47;5074657;28;19924;-76
2022/04/30 11:35:57;;;;;;;;;;;;;;;10.68;100.00;102559.72;5073293;28;19917;-76
2022/04/30 11:38:22;;;;;;;;;;;;;;;10.73;100.00;102576.72;5072997;28;19913;-77
2022/04/30 11:40:47;;;;;;;;;;;;;;;11.13;100.00;102566.91;5072764;28;20533;-76
2022/04/30 11:43:13;;;;;;;;;;;;;;;11.36;100.00;102575.31;5072312;28;19939;-76
2022/04/30 11:45:38;;;;;;;;;;;;;;;11.45;100.00;102593.41;5073092;28;20376;-77
2022/04/30 11:48:03;;;;;;;;;;;;;;;11.83;100.00;102597.44;5070554;28;19917;-77
2022/04/30 11:50:29;;;;;;;;;;;;;;;11.95;100.00;102607.84;5073102;28;19913;-77
2022/04/30 11:52:55;;;;;;;;;;;;;;;11.92;100.00;102613.84;5073564;28;19917;-76
2022/04/30 11:55:22;;;;;;;;;;;;;;;12.19;100.00;102624.19;5074435;28;19912;-77
2022/04/30 11:57:48;;;;;;;;;;;;;;;12.29;100.00;102634.47;5056592;28;19926;-77
2022/04/30 12:00:14;;;;;;;;;;;;;;;12.56;100.00;102637.75;5073307;28;19917;-78
2022/04/30 12:02:40;;;;;;;;;;;;;;;12.79;100.00;102650.47;5074234;28;19912;-77
2022/04/30 12:05:06;;;;;;;;;;;;;;;12.63;100.00;102644.31;5072914;28;19923;-77
2022/04/30 12:07:35;;;;;;;;;;;;;;;12.65;100.00;102647.97;5074281;28;19916;-77
2022/04/30 12:10:01;;;;;;;;;;;;;;;12.46;100.00;102651.28;5072460;28;19955;-77
2022/04/30 12:12:28;;;;;;;;;;;;;;;12.43;100.00;102644.91;5056754;28;19927;-76
2022/04/30 12:14:57;;;;;;;;;;;;;;;12.41;100.00;102651.84;5072538;28;19920;-77
2022/04/30 12:17:29;;;;;;;;;;;;;;;12.44;100.00;102657.31;5072393;28;20284;-77
2022/04/30 12:25:35;;;;;;;;;;;;;;;13.33;100.00;102658.66;5074171;28;19923;-77
2022/04/30 12:28:03;;;;;;;;;;;;;;;13.32;100.00;102654.22;5078295;28;20019;-78
2022/04/30 12:30:29;;;;;;;;;;;;;;;13.11;100.00;102657.50;5094043;28;20325;-78
2022/04/30 12:32:58;;;;;;;;;;;;;;;13.03;100.00;102650.91;5092647;28;19966;-77
2022/04/30 12:35:26;;;;;;;;;;;;;;;13.02;100.00;102657.00;5093166;28;19916;-77
2022/04/30 12:38:02;;;;;;;;;;;;;;;13.05;100.00;102650.16;5074450;28;19916;-78
2022/04/30 12:40:27;;;;;;;;;;;;;;;13.16;100.00;102647.19;5091402;28;19916;-77
2022/04/30 12:42:54;;;;;;;;;;;;;;;12.97;100.00;102656.75;5090944;28;19924;-76
2022/04/30 12:45:19;;;;;;;;;;;;;;;12.87;100.00;102659.72;5091881;28;20443;-76
2022/04/30 12:47:44;;;;;;;;;;;;;;;13.10;100.00;102638.09;5075383;28;19955;-76
2022/04/30 12:50:10;;;;;;;;;;;;;;;12.82;100.00;102635.69;5092535;28;19939;-78
2022/04/30 12:52:35;;;;;;;;;;;;;;;12.65;100.00;102628.56;5075576;28;20101;-77
2022/04/30 12:55:01;;;;;;;;;;;;;;;12.75;100.00;102615.94;5074997;28;19966;-77
2022/04/30 12:57:26;;;;;;;;;;;;;;;12.82;100.00;102622.47;5093618;28;19952;-77
2022/04/30 12:59:53;;;;;;;;;;;;;;;12.90;100.00;102602.63;5075069;28;19942;-77
2022/04/30 13:02:22;;;;;;;;;;;;;;;13.17;100.00;102607.59;5093891;28;20273;-77
2022/04/30 13:04:51;;;;;;;;;;;;;;;13.29;100.00;102608.22;5092205;28;19920;-77
2022/04/30 13:07:17;;;;;;;;;;;;;;;12.75;100.00;102612.38;5092928;28;19950;-77
2022/04/30 13:15:10;;;;;;;;;;;;;;;12.70;100.00;102580.38;5093314;28;19919;-76
2022/04/30 13:17:35;;;;;;;;;;;;;;;13.14;100.00;102570.38;5093313;28;20283;-76